sensor_id;sensor_type;location;lat;lon;timestamp;P1;durP1;ratioP1;P2;durP2;ratioP2
40471;SDS011;26174;42.908;23.800;2023-03-19T00:02:12;24.80;;;11.10;;
40471;SDS011;26174;42.908;23.800;2023-03-19T00:04:37;25.80;;;10.93;;
40471;SDS011;26174;42.908;23.800;2023-03-19T00:07:03;29.63;;;11.88;;
40471;SDS011;26174;42.908;23.800;2023-03-19T00:09:28;25.02;;;11.70;;
40471;SDS011;26174;42.908;23.800;2023-03-19T00:11:54;25.30;;;10.55;;
40471;SDS011;26174;42.908;23.800;2023-03-19T00:14:20;24.10;;;10.95;;
40471;SDS011;26174;42.908;23.800;2023-03-19T00:16:46;24.45;;;10.38;;
40471;SDS011;26174;42.908;23.800;2023-03-19T00:19:11;27.55;;;12.02;;
40471;SDS011;26174;42.908;23.800;2023-03-19T00:21:37;25.10;;;12.23;;
40471;SDS011;26174;42.908;23.800;2023-03-19T00:24:03;26.10;;;12.55;;
40471;SDS011;26174;42.908;23.800;2023-03-19T00:26:29;26.30;;;12.57;;
40471;SDS011;26174;42.908;23.800;2023-03-19T00:28:55;24.77;;;11.25;;
40471;SDS011;26174;42.908;23.800;2023-03-19T00:31:21;29.70;;;11.40;;
40471;SDS011;26174;42.908;23.800;2023-03-19T00:33:47;32.10;;;12.30;;
40471;SDS011;26174;42.908;23.800;2023-03-19T00:36:12;25.70;;;11.73;;
40471;SDS011;26174;42.908;23.800;2023-03-19T00:38:40;27.05;;;11.30;;
40471;SDS011;26174;42.908;23.800;2023-03-19T00:41:06;25.13;;;10.55;;
40471;SDS011;26174;42.908;23.800;2023-03-19T00:43:34;26.23;;;11.43;;
40471;SDS011;26174;42.908;23.800;2023-03-19T00:46:00;31.92;;;11.77;;
40471;SDS011;26174;42.908;23.800;2023-03-19T00:48:26;24.23;;;10.15;;
40471;SDS011;26174;42.908;23.800;2023-03-19T00:50:52;25.42;;;10.40;;
40471;SDS011;26174;42.908;23.800;2023-03-19T00:53:17;20.23;;;9.80;;
40471;SDS011;26174;42.908;23.800;2023-03-19T00:55:43;23.70;;;10.55;;
40471;SDS011;26174;42.908;23.800;2023-03-19T00:58:09;23.55;;;10.25;;
40471;SDS011;26174;42.908;23.800;2023-03-19T01:00:35;19.10;;;9.73;;
40471;SDS011;26174;42.908;23.800;2023-03-19T01:03:01;19.45;;;9.88;;
40471;SDS011;26174;42.908;23.800;2023-03-19T01:05:28;20.70;;;9.93;;
40471;SDS011;26174;42.908;23.800;2023-03-19T01:07:54;23.48;;;10.68;;
40471;SDS011;26174;42.908;23.800;2023-03-19T01:10:21;60.80;;;19.98;;
40471;SDS011;26174;42.908;23.800;2023-03-19T01:12:47;58.85;;;21.00;;
40471;SDS011;26174;42.908;23.800;2023-03-19T01:15:13;25.17;;;11.27;;
40471;SDS011;26174;42.908;23.800;2023-03-19T01:17:38;18.23;;;9.05;;
40471;SDS011;26174;42.908;23.800;2023-03-19T01:20:23;21.67;;;9.45;;
40471;SDS011;26174;42.908;23.800;2023-03-19T01:22:49;21.85;;;10.50;;
40471;SDS011;26174;42.908;23.800;2023-03-19T01:25:14;25.60;;;10.13;;
40471;SDS011;26174;42.908;23.800;2023-03-19T01:27:49;16.17;;;7.70;;
40471;SDS011;26174;42.908;23.800;2023-03-19T01:30:26;19.17;;;7.57;;
40471;SDS011;26174;42.908;23.800;2023-03-19T01:32:52;18.60;;;8.23;;
40471;SDS011;26174;42.908;23.800;2023-03-19T01:35:17;20.95;;;7.20;;
40471;SDS011;26174;42.908;23.800;2023-03-19T01:37:43;14.52;;;6.90;;
40471;SDS011;26174;42.908;23.800;2023-03-19T01:40:18;17.02;;;7.80;;
40471;SDS011;26174;42.908;23.800;2023-03-19T01:42:57;21.67;;;8.85;;
40471;SDS011;26174;42.908;23.800;2023-03-19T01:49:27;18.40;;;7.78;;
40471;SDS011;26174;42.908;23.800;2023-03-19T01:59:42;18.92;;;9.02;;
40471;SDS011;26174;42.908;23.800;2023-03-19T02:09:25;19.17;;;8.95;;
40471;SDS011;26174;42.908;23.800;2023-03-19T02:12:05;18.47;;;9.27;;
40471;SDS011;26174;42.908;23.800;2023-03-19T02:14:58;26.75;;;9.65;;
40471;SDS011;26174;42.908;23.800;2023-03-19T02:30:32;18.25;;;8.73;;
40471;SDS011;26174;42.908;23.800;2023-03-19T02:33:17;21.00;;;7.55;;
40471;SDS011;26174;42.908;23.800;2023-03-19T02:39:44;15.20;;;7.78;;
40471;SDS011;26174;42.908;23.800;2023-03-19T02:42:25;16.60;;;7.45;;
40471;SDS011;26174;42.908;23.800;2023-03-19T02:44:55;17.33;;;7.95;;
40471;SDS011;26174;42.908;23.800;2023-03-19T02:47:22;16.92;;;8.07;;
40471;SDS011;26174;42.908;23.800;2023-03-19T02:49:51;15.65;;;7.80;;
40471;SDS011;26174;42.908;23.800;2023-03-19T02:52:26;23.95;;;9.10;;
40471;SDS011;26174;42.908;23.800;2023-03-19T02:54:51;17.00;;;8.13;;
40471;SDS011;26174;42.908;23.800;2023-03-19T02:57:17;24.90;;;9.65;;
40471;SDS011;26174;42.908;23.800;2023-03-19T02:59:42;19.55;;;9.70;;
40471;SDS011;26174;42.908;23.800;2023-03-19T03:02:08;17.98;;;8.98;;
40471;SDS011;26174;42.908;23.800;2023-03-19T03:04:34;19.17;;;10.00;;
40471;SDS011;26174;42.908;23.800;2023-03-19T03:07:01;24.70;;;10.50;;
40471;SDS011;26174;42.908;23.800;2023-03-19T03:09:28;27.92;;;12.20;;
40471;SDS011;26174;42.908;23.800;2023-03-19T03:11:53;37.10;;;13.52;;
40471;SDS011;26174;42.908;23.800;2023-03-19T03:14:19;32.58;;;13.98;;
40471;SDS011;26174;42.908;23.800;2023-03-19T03:16:44;37.55;;;15.20;;
40471;SDS011;26174;42.908;23.800;2023-03-19T03:19:10;41.30;;;14.15;;
40471;SDS011;26174;42.908;23.800;2023-03-19T03:21:35;33.95;;;14.07;;
40471;SDS011;26174;42.908;23.800;2023-03-19T03:24:01;35.85;;;13.38;;
40471;SDS011;26174;42.908;23.800;2023-03-19T03:26:27;29.23;;;12.60;;
40471;SDS011;26174;42.908;23.800;2023-03-19T03:28:52;23.38;;;10.70;;
40471;SDS011;26174;42.908;23.800;2023-03-19T03:31:18;33.28;;;12.18;;
40471;SDS011;26174;42.908;23.800;2023-03-19T03:33:44;31.45;;;11.38;;
40471;SDS011;26174;42.908;23.800;2023-03-19T03:36:10;24.35;;;11.43;;
40471;SDS011;26174;42.908;23.800;2023-03-19T03:38:36;32.88;;;12.70;;
40471;SDS011;26174;42.908;23.800;2023-03-19T03:41:02;37.85;;;13.13;;
40471;SDS011;26174;42.908;23.800;2023-03-19T03:43:27;30.10;;;12.63;;
40471;SDS011;26174;42.908;23.800;2023-03-19T03:45:53;21.27;;;9.30;;
40471;SDS011;26174;42.908;23.800;2023-03-19T03:48:18;21.20;;;8.52;;
40471;SDS011;26174;42.908;23.800;2023-03-19T03:50:44;22.25;;;8.75;;
40471;SDS011;26174;42.908;23.800;2023-03-19T03:53:10;20.02;;;8.40;;
40471;SDS011;26174;42.908;23.800;2023-03-19T03:55:37;17.58;;;7.90;;
40471;SDS011;26174;42.908;23.800;2023-03-19T03:58:02;24.05;;;9.27;;
40471;SDS011;26174;42.908;23.800;2023-03-19T04:00:28;15.45;;;7.95;;
40471;SDS011;26174;42.908;23.800;2023-03-19T04:02:54;19.40;;;8.73;;
40471;SDS011;26174;42.908;23.800;2023-03-19T04:05:19;21.20;;;8.45;;
40471;SDS011;26174;42.908;23.800;2023-03-19T04:07:45;14.70;;;7.97;;
40471;SDS011;26174;42.908;23.800;2023-03-19T04:10:12;14.85;;;7.80;;
40471;SDS011;26174;42.908;23.800;2023-03-19T04:12:38;17.27;;;9.10;;
40471;SDS011;26174;42.908;23.800;2023-03-19T04:15:04;19.67;;;8.73;;
40471;SDS011;26174;42.908;23.800;2023-03-19T04:17:31;21.10;;;9.35;;
40471;SDS011;26174;42.908;23.800;2023-03-19T04:19:57;23.48;;;10.13;;
40471;SDS011;26174;42.908;23.800;2023-03-19T04:22:23;27.25;;;11.02;;
40471;SDS011;26174;42.908;23.800;2023-03-19T04:24:49;27.30;;;10.77;;
40471;SDS011;26174;42.908;23.800;2023-03-19T04:27:14;19.73;;;10.68;;
40471;SDS011;26174;42.908;23.800;2023-03-19T04:29:40;23.00;;;10.77;;
40471;SDS011;26174;42.908;23.800;2023-03-19T04:32:05;22.02;;;10.43;;
40471;SDS011;26174;42.908;23.800;2023-03-19T04:34:31;26.98;;;10.68;;
40471;SDS011;26174;42.908;23.800;2023-03-19T04:36:57;35.25;;;11.55;;
40471;SDS011;26174;42.908;23.800;2023-03-19T04:39:23;29.58;;;12.15;;
40471;SDS011;26174;42.908;23.800;2023-03-19T04:41:49;33.03;;;13.00;;
40471;SDS011;26174;42.908;23.800;2023-03-19T04:44:15;28.67;;;11.63;;
40471;SDS011;26174;42.908;23.800;2023-03-19T04:46:41;28.98;;;11.77;;
40471;SDS011;26174;42.908;23.800;2023-03-19T04:49:09;26.92;;;11.32;;
40471;SDS011;26174;42.908;23.800;2023-03-19T04:51:34;22.63;;;11.50;;
40471;SDS011;26174;42.908;23.800;2023-03-19T04:54:00;30.35;;;11.10;;
40471;SDS011;26174;42.908;23.800;2023-03-19T04:56:26;29.10;;;11.02;;
40471;SDS011;26174;42.908;23.800;2023-03-19T04:58:52;22.08;;;10.93;;
40471;SDS011;26174;42.908;23.800;2023-03-19T05:01:17;27.80;;;12.93;;
40471;SDS011;26174;42.908;23.800;2023-03-19T05:03:43;24.73;;;11.90;;
40471;SDS011;26174;42.908;23.800;2023-03-19T05:06:09;30.75;;;13.50;;
40471;SDS011;26174;42.908;23.800;2023-03-19T05:08:34;26.08;;;11.85;;
40471;SDS011;26174;42.908;23.800;2023-03-19T05:11:00;33.83;;;13.77;;
40471;SDS011;26174;42.908;23.800;2023-03-19T05:13:26;33.95;;;13.80;;
40471;SDS011;26174;42.908;23.800;2023-03-19T05:15:52;38.63;;;15.80;;
40471;SDS011;26174;42.908;23.800;2023-03-19T05:18:19;41.45;;;17.75;;
40471;SDS011;26174;42.908;23.800;2023-03-19T05:20:45;47.22;;;21.30;;
40471;SDS011;26174;42.908;23.800;2023-03-19T05:23:11;60.65;;;23.48;;
40471;SDS011;26174;42.908;23.800;2023-03-19T05:25:37;64.13;;;25.83;;
40471;SDS011;26174;42.908;23.800;2023-03-19T05:28:04;54.00;;;24.33;;
40471;SDS011;26174;42.908;23.800;2023-03-19T05:30:31;59.58;;;25.15;;
40471;SDS011;26174;42.908;23.800;2023-03-19T05:32:58;54.38;;;24.30;;
40471;SDS011;26174;42.908;23.800;2023-03-19T05:35:24;59.30;;;24.05;;
40471;SDS011;26174;42.908;23.800;2023-03-19T05:37:52;81.25;;;32.42;;
40471;SDS011;26174;42.908;23.800;2023-03-19T05:40:18;76.38;;;32.28;;
40471;SDS011;26174;42.908;23.800;2023-03-19T05:42:46;73.93;;;33.17;;
40471;SDS011;26174;42.908;23.800;2023-03-19T05:45:11;61.25;;;26.73;;
40471;SDS011;26174;42.908;23.800;2023-03-19T05:47:37;55.70;;;27.15;;
40471;SDS011;26174;42.908;23.800;2023-03-19T05:50:03;53.53;;;24.95;;
40471;SDS011;26174;42.908;23.800;2023-03-19T05:52:30;48.70;;;21.88;;
40471;SDS011;26174;42.908;23.800;2023-03-19T05:54:56;55.78;;;26.27;;
40471;SDS011;26174;42.908;23.800;2023-03-19T05:57:28;54.67;;;26.65;;
40471;SDS011;26174;42.908;23.800;2023-03-19T05:59:53;47.28;;;24.15;;
40471;SDS011;26174;42.908;23.800;2023-03-19T06:02:21;51.25;;;25.92;;
40471;SDS011;26174;42.908;23.800;2023-03-19T06:04:50;48.33;;;23.33;;
40471;SDS011;26174;42.908;23.800;2023-03-19T06:07:16;49.75;;;23.17;;
40471;SDS011;26174;42.908;23.800;2023-03-19T06:09:41;44.47;;;22.95;;
40471;SDS011;26174;42.908;23.800;2023-03-19T06:12:09;46.38;;;23.38;;
40471;SDS011;26174;42.908;23.800;2023-03-19T06:14:35;42.42;;;24.30;;
40471;SDS011;26174;42.908;23.800;2023-03-19T06:17:01;45.38;;;20.92;;
40471;SDS011;26174;42.908;23.800;2023-03-19T06:19:27;44.40;;;20.75;;
40471;SDS011;26174;42.908;23.800;2023-03-19T06:21:52;38.60;;;18.20;;
40471;SDS011;26174;42.908;23.800;2023-03-19T06:24:18;33.20;;;16.23;;
40471;SDS011;26174;42.908;23.800;2023-03-19T06:26:43;28.77;;;14.18;;
40471;SDS011;26174;42.908;23.800;2023-03-19T06:29:09;21.08;;;12.18;;
40471;SDS011;26174;42.908;23.800;2023-03-19T06:31:35;26.15;;;12.73;;
40471;SDS011;26174;42.908;23.800;2023-03-19T06:34:03;24.73;;;12.15;;
40471;SDS011;26174;42.908;23.800;2023-03-19T06:36:28;28.27;;;12.68;;
40471;SDS011;26174;42.908;23.800;2023-03-19T06:38:54;28.83;;;13.77;;
40471;SDS011;26174;42.908;23.800;2023-03-19T06:41:20;22.80;;;13.73;;
40471;SDS011;26174;42.908;23.800;2023-03-19T06:43:45;25.40;;;12.35;;
40471;SDS011;26174;42.908;23.800;2023-03-19T06:46:13;25.20;;;12.60;;
40471;SDS011;26174;42.908;23.800;2023-03-19T06:48:39;45.38;;;24.40;;
40471;SDS011;26174;42.908;23.800;2023-03-19T06:51:05;26.00;;;11.13;;
40471;SDS011;26174;42.908;23.800;2023-03-19T06:53:31;17.60;;;9.43;;
40471;SDS011;26174;42.908;23.800;2023-03-19T06:55:56;21.00;;;11.43;;
40471;SDS011;26174;42.908;23.800;2023-03-19T06:58:22;19.98;;;9.20;;
40471;SDS011;26174;42.908;23.800;2023-03-19T07:00:47;17.42;;;8.95;;
40471;SDS011;26174;42.908;23.800;2023-03-19T07:03:13;20.80;;;9.75;;
40471;SDS011;26174;42.908;23.800;2023-03-19T07:05:38;17.20;;;8.82;;
40471;SDS011;26174;42.908;23.800;2023-03-19T07:08:04;17.98;;;10.65;;
40471;SDS011;26174;42.908;23.800;2023-03-19T07:10:35;19.38;;;11.15;;
40471;SDS011;26174;42.908;23.800;2023-03-19T07:13:04;22.60;;;11.95;;
40471;SDS011;26174;42.908;23.800;2023-03-19T07:15:30;25.58;;;12.23;;
40471;SDS011;26174;42.908;23.800;2023-03-19T07:17:56;45.53;;;24.25;;
40471;SDS011;26174;42.908;23.800;2023-03-19T07:20:21;39.80;;;20.20;;
40471;SDS011;26174;42.908;23.800;2023-03-19T07:22:49;18.42;;;11.05;;
40471;SDS011;26174;42.908;23.800;2023-03-19T07:25:16;15.32;;;8.93;;
40471;SDS011;26174;42.908;23.800;2023-03-19T07:27:42;14.68;;;8.10;;
40471;SDS011;26174;42.908;23.800;2023-03-19T07:30:08;30.98;;;16.48;;
40471;SDS011;26174;42.908;23.800;2023-03-19T07:32:34;12.48;;;7.13;;
40471;SDS011;26174;42.908;23.800;2023-03-19T07:35:00;16.70;;;8.93;;
40471;SDS011;26174;42.908;23.800;2023-03-19T07:37:26;23.13;;;12.20;;
40471;SDS011;26174;42.908;23.800;2023-03-19T07:39:52;26.55;;;15.20;;
40471;SDS011;26174;42.908;23.800;2023-03-19T07:42:17;16.17;;;9.18;;
40471;SDS011;26174;42.908;23.800;2023-03-19T07:44:43;12.00;;;7.00;;
40471;SDS011;26174;42.908;23.800;2023-03-19T07:47:08;13.90;;;8.55;;
40471;SDS011;26174;42.908;23.800;2023-03-19T07:49:35;12.32;;;6.55;;
40471;SDS011;26174;42.908;23.800;2023-03-19T07:52:01;16.60;;;6.30;;
40471;SDS011;26174;42.908;23.800;2023-03-19T07:54:26;13.38;;;7.75;;
40471;SDS011;26174;42.908;23.800;2023-03-19T07:56:52;12.32;;;6.88;;
40471;SDS011;26174;42.908;23.800;2023-03-19T07:59:17;13.48;;;7.15;;
40471;SDS011;26174;42.908;23.800;2023-03-19T08:01:43;12.93;;;6.82;;
40471;SDS011;26174;42.908;23.800;2023-03-19T08:04:08;12.30;;;7.70;;
40471;SDS011;26174;42.908;23.800;2023-03-19T08:06:34;19.90;;;7.82;;
40471;SDS011;26174;42.908;23.800;2023-03-19T08:09:00;13.98;;;8.13;;
40471;SDS011;26174;42.908;23.800;2023-03-19T08:11:25;19.00;;;8.77;;
40471;SDS011;26174;42.908;23.800;2023-03-19T08:13:53;16.73;;;9.25;;
40471;SDS011;26174;42.908;23.800;2023-03-19T08:16:19;20.25;;;9.65;;
40471;SDS011;26174;42.908;23.800;2023-03-19T08:18:45;15.90;;;9.38;;
40471;SDS011;26174;42.908;23.800;2023-03-19T08:21:10;18.90;;;8.98;;
40471;SDS011;26174;42.908;23.800;2023-03-19T08:23:36;14.60;;;8.88;;
40471;SDS011;26174;42.908;23.800;2023-03-19T08:26:01;19.75;;;9.88;;
40471;SDS011;26174;42.908;23.800;2023-03-19T08:28:27;17.90;;;9.18;;
40471;SDS011;26174;42.908;23.800;2023-03-19T08:30:52;17.08;;;8.95;;
40471;SDS011;26174;42.908;23.800;2023-03-19T08:33:19;19.23;;;9.77;;
40471;SDS011;26174;42.908;23.800;2023-03-19T08:35:45;17.48;;;8.90;;
40471;SDS011;26174;42.908;23.800;2023-03-19T08:38:11;17.77;;;9.32;;
40471;SDS011;26174;42.908;23.800;2023-03-19T08:40:36;17.33;;;9.63;;
40471;SDS011;26174;42.908;23.800;2023-03-19T08:43:02;14.57;;;8.88;;
40471;SDS011;26174;42.908;23.800;2023-03-19T08:45:28;11.52;;;7.05;;
40471;SDS011;26174;42.908;23.800;2023-03-19T08:47:53;13.05;;;6.75;;
40471;SDS011;26174;42.908;23.800;2023-03-19T08:50:22;10.00;;;5.38;;
40471;SDS011;26174;42.908;23.800;2023-03-19T08:52:47;5.45;;;4.43;;
40471;SDS011;26174;42.908;23.800;2023-03-19T08:55:13;7.80;;;4.68;;
40471;SDS011;26174;42.908;23.800;2023-03-19T08:57:39;8.80;;;4.68;;
40471;SDS011;26174;42.908;23.800;2023-03-19T09:00:05;11.45;;;6.88;;
40471;SDS011;26174;42.908;23.800;2023-03-19T09:02:34;9.20;;;5.05;;
40471;SDS011;26174;42.908;23.800;2023-03-19T09:05:00;6.80;;;4.40;;
40471;SDS011;26174;42.908;23.800;2023-03-19T09:07:25;8.27;;;5.00;;
40471;SDS011;26174;42.908;23.800;2023-03-19T09:09:51;11.30;;;5.85;;
40471;SDS011;26174;42.908;23.800;2023-03-19T09:12:16;5.05;;;2.85;;
40471;SDS011;26174;42.908;23.800;2023-03-19T09:14:43;6.55;;;3.17;;
40471;SDS011;26174;42.908;23.800;2023-03-19T09:17:09;13.52;;;9.00;;
40471;SDS011;26174;42.908;23.800;2023-03-19T09:19:35;7.35;;;3.22;;
40471;SDS011;26174;42.908;23.800;2023-03-19T09:22:02;6.38;;;3.20;;
40471;SDS011;26174;42.908;23.800;2023-03-19T09:24:28;6.07;;;3.45;;
40471;SDS011;26174;42.908;23.800;2023-03-19T09:26:53;2.72;;;2.17;;
40471;SDS011;26174;42.908;23.800;2023-03-19T09:29:19;5.95;;;2.95;;
40471;SDS011;26174;42.908;23.800;2023-03-19T09:31:45;5.00;;;2.90;;
40471;SDS011;26174;42.908;23.800;2023-03-19T09:34:10;4.05;;;3.20;;
40471;SDS011;26174;42.908;23.800;2023-03-19T09:36:38;5.18;;;3.13;;
40471;SDS011;26174;42.908;23.800;2023-03-19T09:39:04;5.70;;;2.85;;
40471;SDS011;26174;42.908;23.800;2023-03-19T09:44:00;5.10;;;3.33;;
40471;SDS011;26174;42.908;23.800;2023-03-19T09:49:33;5.28;;;3.42;;
40471;SDS011;26174;42.908;23.800;2023-03-19T09:52:45;6.47;;;3.88;;
40471;SDS011;26174;42.908;23.800;2023-03-19T09:57:50;5.03;;;3.45;;
40471;SDS011;26174;42.908;23.800;2023-03-19T10:00:25;7.00;;;3.42;;
40471;SDS011;26174;42.908;23.800;2023-03-19T10:03:15;6.90;;;3.97;;
40471;SDS011;26174;42.908;23.800;2023-03-19T10:08:29;5.95;;;3.80;;
40471;SDS011;26174;42.908;23.800;2023-03-19T10:13:43;7.15;;;4.03;;
40471;SDS011;26174;42.908;23.800;2023-03-19T10:16:20;5.85;;;3.92;;
40471;SDS011;26174;42.908;23.800;2023-03-19T10:18:49;6.72;;;3.60;;
40471;SDS011;26174;42.908;23.800;2023-03-19T10:21:21;4.25;;;3.10;;
40471;SDS011;26174;42.908;23.800;2023-03-19T10:23:58;8.05;;;3.83;;
40471;SDS011;26174;42.908;23.800;2023-03-19T10:26:29;5.88;;;3.97;;
40471;SDS011;26174;42.908;23.800;2023-03-19T10:29:07;6.40;;;3.60;;
40471;SDS011;26174;42.908;23.800;2023-03-19T10:34:46;4.00;;;3.10;;
40471;SDS011;26174;42.908;23.800;2023-03-19T10:37:28;8.60;;;3.53;;
40471;SDS011;26174;42.908;23.800;2023-03-19T10:39:58;9.77;;;5.63;;
40471;SDS011;26174;42.908;23.800;2023-03-19T10:48:15;5.35;;;3.10;;
40471;SDS011;26174;42.908;23.800;2023-03-19T10:53:28;8.90;;;3.58;;
40471;SDS011;26174;42.908;23.800;2023-03-19T10:58:32;4.32;;;2.67;;
40471;SDS011;26174;42.908;23.800;2023-03-19T11:01:09;4.70;;;2.30;;
40471;SDS011;26174;42.908;23.800;2023-03-19T11:03:48;7.07;;;2.63;;
40471;SDS011;26174;42.908;23.800;2023-03-19T11:06:18;4.88;;;3.53;;
40471;SDS011;26174;42.908;23.800;2023-03-19T11:11:25;5.93;;;2.22;;
40471;SDS011;26174;42.908;23.800;2023-03-19T11:14:15;5.50;;;3.22;;
40471;SDS011;26174;42.908;23.800;2023-03-19T11:17:26;7.00;;;3.20;;
40471;SDS011;26174;42.908;23.800;2023-03-19T11:19:40;7.72;;;2.95;;
40471;SDS011;26174;42.908;23.800;2023-03-19T11:22:11;4.47;;;2.60;;
40471;SDS011;26174;42.908;23.800;2023-03-19T11:24:41;4.35;;;2.95;;
40471;SDS011;26174;42.908;23.800;2023-03-19T11:27:13;8.02;;;4.32;;
40471;SDS011;26174;42.908;23.800;2023-03-19T11:29:42;1.65;;;1.33;;
40471;SDS011;26174;42.908;23.800;2023-03-19T11:37:52;1.75;;;1.25;;
40471;SDS011;26174;42.908;23.800;2023-03-19T11:46:08;11.02;;;4.95;;
40471;SDS011;26174;42.908;23.800;2023-03-19T11:54:10;3.53;;;1.75;;
40471;SDS011;26174;42.908;23.800;2023-03-19T11:57:02;2.70;;;1.60;;
40471;SDS011;26174;42.908;23.800;2023-03-19T12:02:29;3.88;;;2.38;;
40471;SDS011;26174;42.908;23.800;2023-03-19T12:13:44;4.40;;;1.58;;
40471;SDS011;26174;42.908;23.800;2023-03-19T12:24:57;1.27;;;1.17;;
40471;SDS011;26174;42.908;23.800;2023-03-19T12:27:27;1.40;;;1.30;;
40471;SDS011;26174;42.908;23.800;2023-03-19T12:33:02;7.15;;;2.38;;
40471;SDS011;26174;42.908;23.800;2023-03-19T12:35:36;1.83;;;1.42;;
40471;SDS011;26174;42.908;23.800;2023-03-19T12:38:09;7.20;;;1.80;;
40471;SDS011;26174;42.908;23.800;2023-03-19T12:40:58;2.90;;;1.55;;
40471;SDS011;26174;42.908;23.800;2023-03-19T12:43:30;1.70;;;1.50;;
40471;SDS011;26174;42.908;23.800;2023-03-19T12:49:12;3.53;;;1.40;;
40471;SDS011;26174;42.908;23.800;2023-03-19T12:51:39;2.28;;;1.45;;
40471;SDS011;26174;42.908;23.800;2023-03-19T12:54:18;1.63;;;1.50;;
40471;SDS011;26174;42.908;23.800;2023-03-19T12:59:32;3.03;;;1.48;;
40471;SDS011;26174;42.908;23.800;2023-03-19T13:10:22;4.45;;;2.28;;
40471;SDS011;26174;42.908;23.800;2023-03-19T13:12:51;5.13;;;2.30;;
40471;SDS011;26174;42.908;23.800;2023-03-19T13:20:45;2.25;;;1.50;;
40471;SDS011;26174;42.908;23.800;2023-03-19T13:23:22;1.95;;;1.55;;
40471;SDS011;26174;42.908;23.800;2023-03-19T13:25:50;2.72;;;1.45;;
40471;SDS011;26174;42.908;23.800;2023-03-19T13:28:33;1.88;;;1.33;;
40471;SDS011;26174;42.908;23.800;2023-03-19T13:31:16;2.13;;;1.60;;
40471;SDS011;26174;42.908;23.800;2023-03-19T13:33:50;2.78;;;1.83;;
40471;SDS011;26174;42.908;23.800;2023-03-19T13:36:18;4.85;;;2.30;;
40471;SDS011;26174;42.908;23.800;2023-03-19T13:38:48;2.03;;;1.50;;
40471;SDS011;26174;42.908;23.800;2023-03-19T13:44:00;3.75;;;2.28;;
40471;SDS011;26174;42.908;23.800;2023-03-19T13:46:48;1.42;;;1.33;;
40471;SDS011;26174;42.908;23.800;2023-03-19T13:50:00;72.50;;;39.72;;
40471;SDS011;26174;42.908;23.800;2023-03-19T13:54:52;4.47;;;3.28;;
40471;SDS011;26174;42.908;23.800;2023-03-19T13:57:31;2.67;;;2.08;;
40471;SDS011;26174;42.908;23.800;2023-03-19T13:59:58;2.75;;;1.80;;
40471;SDS011;26174;42.908;23.800;2023-03-19T14:05:51;5.63;;;2.90;;
40471;SDS011;26174;42.908;23.800;2023-03-19T14:08:19;4.78;;;2.38;;
40471;SDS011;26174;42.908;23.800;2023-03-19T14:10:54;3.45;;;2.35;;
40471;SDS011;26174;42.908;23.800;2023-03-19T14:13:27;2.85;;;2.00;;
40471;SDS011;26174;42.908;23.800;2023-03-19T14:15:59;7.05;;;5.22;;
40471;SDS011;26174;42.908;23.800;2023-03-19T14:18:30;2.80;;;1.70;;
40471;SDS011;26174;42.908;23.800;2023-03-19T14:20:57;6.43;;;3.00;;
40471;SDS011;26174;42.908;23.800;2023-03-19T14:23:26;5.35;;;2.70;;
40471;SDS011;26174;42.908;23.800;2023-03-19T14:29:12;2.67;;;2.15;;
40471;SDS011;26174;42.908;23.800;2023-03-19T14:33:49;9.77;;;3.13;;
40471;SDS011;26174;42.908;23.800;2023-03-19T14:36:23;4.53;;;2.13;;
40471;SDS011;26174;42.908;23.800;2023-03-19T14:41:21;4.40;;;2.22;;
40471;SDS011;26174;42.908;23.800;2023-03-19T14:54:58;9.40;;;2.95;;
40471;SDS011;26174;42.908;23.800;2023-03-19T14:57:25;5.00;;;3.22;;
40471;SDS011;26174;42.908;23.800;2023-03-19T14:59:53;8.18;;;3.80;;
40471;SDS011;26174;42.908;23.800;2023-03-19T15:02:33;8.73;;;4.15;;
40471;SDS011;26174;42.908;23.800;2023-03-19T15:07:33;11.77;;;3.33;;
40471;SDS011;26174;42.908;23.800;2023-03-19T15:10:02;4.22;;;2.90;;
40471;SDS011;26174;42.908;23.800;2023-03-19T15:17:39;2.90;;;1.92;;
40471;SDS011;26174;42.908;23.800;2023-03-19T15:20:19;3.38;;;2.08;;
40471;SDS011;26174;42.908;23.800;2023-03-19T15:22:55;4.05;;;2.00;;
40471;SDS011;26174;42.908;23.800;2023-03-19T15:25:24;2.88;;;2.10;;
40471;SDS011;26174;42.908;23.800;2023-03-19T15:28:03;2.53;;;1.60;;
40471;SDS011;26174;42.908;23.800;2023-03-19T15:30:30;5.72;;;2.30;;
40471;SDS011;26174;42.908;23.800;2023-03-19T15:32:56;3.95;;;2.38;;
40471;SDS011;26174;42.908;23.800;2023-03-19T15:35:22;7.25;;;2.10;;
40471;SDS011;26174;42.908;23.800;2023-03-19T15:37:59;3.83;;;2.20;;
40471;SDS011;26174;42.908;23.800;2023-03-19T15:40:28;3.97;;;2.47;;
40471;SDS011;26174;42.908;23.800;2023-03-19T15:42:55;5.10;;;2.92;;
40471;SDS011;26174;42.908;23.800;2023-03-19T15:45:22;8.52;;;3.80;;
40471;SDS011;26174;42.908;23.800;2023-03-19T15:50:33;111.20;;;57.88;;
40471;SDS011;26174;42.908;23.800;2023-03-19T15:53:05;17.45;;;9.50;;
40471;SDS011;26174;42.908;23.800;2023-03-19T15:55:34;15.60;;;8.32;;
40471;SDS011;26174;42.908;23.800;2023-03-19T15:58:17;20.63;;;7.75;;
40471;SDS011;26174;42.908;23.800;2023-03-19T16:00:45;11.07;;;6.25;;
40471;SDS011;26174;42.908;23.800;2023-03-19T16:03:15;29.92;;;8.75;;
40471;SDS011;26174;42.908;23.800;2023-03-19T16:05:42;16.20;;;6.72;;
40471;SDS011;26174;42.908;23.800;2023-03-19T16:08:09;17.20;;;6.70;;
40471;SDS011;26174;42.908;23.800;2023-03-19T16:10:50;22.50;;;11.20;;
40471;SDS011;26174;42.908;23.800;2023-03-19T16:13:21;21.67;;;9.60;;
40471;SDS011;26174;42.908;23.800;2023-03-19T16:16:04;20.50;;;9.68;;
40471;SDS011;26174;42.908;23.800;2023-03-19T16:24:00;29.33;;;12.63;;
40471;SDS011;26174;42.908;23.800;2023-03-19T16:31:49;20.45;;;10.73;;
40471;SDS011;26174;42.908;23.800;2023-03-19T16:34:20;19.55;;;10.60;;
40471;SDS011;26174;42.908;23.800;2023-03-19T16:36:47;30.88;;;11.40;;
40471;SDS011;26174;42.908;23.800;2023-03-19T16:39:52;22.67;;;11.20;;
40471;SDS011;26174;42.908;23.800;2023-03-19T16:44:35;78.10;;;40.10;;
40471;SDS011;26174;42.908;23.800;2023-03-19T16:47:08;59.88;;;29.85;;
40471;SDS011;26174;42.908;23.800;2023-03-19T16:49:35;40.38;;;19.77;;
40471;SDS011;26174;42.908;23.800;2023-03-19T16:52:00;31.35;;;15.32;;
40471;SDS011;26174;42.908;23.800;2023-03-19T16:54:26;61.47;;;28.63;;
40471;SDS011;26174;42.908;23.800;2023-03-19T16:56:51;50.80;;;23.92;;
40471;SDS011;26174;42.908;23.800;2023-03-19T16:59:18;81.05;;;37.88;;
40471;SDS011;26174;42.908;23.800;2023-03-19T17:01:48;71.97;;;34.03;;
40471;SDS011;26174;42.908;23.800;2023-03-19T17:04:13;75.95;;;36.75;;
40471;SDS011;26174;42.908;23.800;2023-03-19T17:06:41;79.10;;;36.13;;
40471;SDS011;26174;42.908;23.800;2023-03-19T17:09:07;78.55;;;33.47;;
40471;SDS011;26174;42.908;23.800;2023-03-19T17:11:34;55.50;;;27.42;;
40471;SDS011;26174;42.908;23.800;2023-03-19T17:14:00;42.50;;;21.42;;
40471;SDS011;26174;42.908;23.800;2023-03-19T17:16:27;78.43;;;37.83;;
40471;SDS011;26174;42.908;23.800;2023-03-19T17:18:53;84.95;;;44.25;;
40471;SDS011;26174;42.908;23.800;2023-03-19T17:21:23;93.07;;;45.20;;
40471;SDS011;26174;42.908;23.800;2023-03-19T17:23:52;127.05;;;54.42;;
40471;SDS011;26174;42.908;23.800;2023-03-19T17:26:19;82.60;;;37.65;;
40471;SDS011;26174;42.908;23.800;2023-03-19T17:28:45;77.55;;;35.70;;